weather.gov     
National Weather Service

Terminal Aerodrome Forecast
NWS Homepage
This page is being discontinued on March 12, 2014.
The same data is available at this site. Please update your bookmarks.
Thank you, and we apologize for the inconvenience.
Please send an email to SR-SRH.Webmaster@noaa.gov with any concerns.


Current Version
Previous Version:    01  02  03  04  05  06  07  08  09  10  11  12  13  14  15  16  17  18  19  20  21  22  23  
[Printable]
917
FTUS42 KGSP 311739
TAFAVL
TAF
KAVL 311739Z 3118/0118 30005KT P6SM OVC060
     FM010000 32009KT P6SM VCSH OVC045
     FM010200 32014G25KT P6SM -SHRA OVC035
     FM010700 32017G30KT 5SM SHRASN OVC025
     FM010900 32017G30KT 3SM -SHSN OVC015
     FM011300 32022G38KT 2SM -SHSN OVC010=


917
FTUS42 KGSP 311739
TAFAVL
TAF
KAVL 311739Z 3118/0118 30005KT P6SM OVC060
     FM010000 32009KT P6SM VCSH OVC045
     FM010200 32014G25KT P6SM -SHRA OVC035
     FM010700 32017G30KT 5SM SHRASN OVC025
     FM010900 32017G30KT 3SM -SHSN OVC015
     FM011300 32022G38KT 2SM -SHSN OVC010=




U.S. Dept. of Commerce
NOAA National Weather Service
1325 East West Highway
Silver Spring, MD 20910
E-mail: w-nws.webmaster@noaa.gov
Page last modified: May 16, 2007
NATIONAL WEATHER SERVICE: for Safety, for Work, for Fun - FOR LIFE